sensor_id;sensor_type;location;lat;lon;timestamp;P1;durP1;ratioP1;P2;durP2;ratioP2
12601;SDS011;30282;16.436;99.370;2024-02-16T00:00:18;59.50;;;39.63;;
12601;SDS011;30282;16.436;99.370;2024-02-16T00:02:48;58.80;;;40.67;;
12601;SDS011;30282;16.436;99.370;2024-02-16T00:05:17;80.77;;;41.23;;
12601;SDS011;30282;16.436;99.370;2024-02-16T00:07:48;70.87;;;44.27;;
12601;SDS011;30282;16.436;99.370;2024-02-16T00:10:17;86.53;;;46.13;;
12601;SDS011;30282;16.436;99.370;2024-02-16T00:12:47;76.63;;;50.33;;
12601;SDS011;30282;16.436;99.370;2024-02-16T00:15:16;84.67;;;51.13;;
12601;SDS011;30282;16.436;99.370;2024-02-16T00:17:46;72.50;;;45.43;;
12601;SDS011;30282;16.436;99.370;2024-02-16T00:20:15;64.17;;;43.43;;
12601;SDS011;30282;16.436;99.370;2024-02-16T00:22:48;76.20;;;40.70;;
12601;SDS011;30282;16.436;99.370;2024-02-16T00:25:18;62.53;;;42.30;;
12601;SDS011;30282;16.436;99.370;2024-02-16T00:27:47;107.80;;;43.60;;
12601;SDS011;30282;16.436;99.370;2024-02-16T00:30:18;105.60;;;43.97;;
12601;SDS011;30282;16.436;99.370;2024-02-16T00:32:48;407.33;;;68.13;;
12601;SDS011;30282;16.436;99.370;2024-02-16T00:35:18;299.90;;;56.17;;
12601;SDS011;30282;16.436;99.370;2024-02-16T00:37:49;421.23;;;70.33;;
12601;SDS011;30282;16.436;99.370;2024-02-16T00:40:18;95.90;;;45.97;;
12601;SDS011;30282;16.436;99.370;2024-02-16T00:42:48;97.00;;;45.20;;
12601;SDS011;30282;16.436;99.370;2024-02-16T00:45:17;198.13;;;52.67;;
12601;SDS011;30282;16.436;99.370;2024-02-16T00:47:47;73.50;;;42.80;;
12601;SDS011;30282;16.436;99.370;2024-02-16T00:50:16;68.77;;;44.00;;
12601;SDS011;30282;16.436;99.370;2024-02-16T00:52:45;66.80;;;44.10;;
12601;SDS011;30282;16.436;99.370;2024-02-16T00:55:16;68.70;;;42.70;;
12601;SDS011;30282;16.436;99.370;2024-02-16T00:57:45;60.20;;;41.83;;
12601;SDS011;30282;16.436;99.370;2024-02-16T01:00:15;59.10;;;39.93;;
12601;SDS011;30282;16.436;99.370;2024-02-16T01:02:45;105.40;;;44.00;;
12601;SDS011;30282;16.436;99.370;2024-02-16T01:05:14;70.50;;;43.23;;
12601;SDS011;30282;16.436;99.370;2024-02-16T01:07:44;56.80;;;41.07;;
12601;SDS011;30282;16.436;99.370;2024-02-16T01:10:13;72.83;;;43.27;;
12601;SDS011;30282;16.436;99.370;2024-02-16T01:12:44;72.43;;;41.20;;
12601;SDS011;30282;16.436;99.370;2024-02-16T01:15:13;59.87;;;41.67;;
12601;SDS011;30282;16.436;99.370;2024-02-16T01:17:42;65.07;;;45.23;;
12601;SDS011;30282;16.436;99.370;2024-02-16T01:20:12;66.63;;;45.03;;
12601;SDS011;30282;16.436;99.370;2024-02-16T01:22:41;58.73;;;44.53;;
12601;SDS011;30282;16.436;99.370;2024-02-16T01:25:10;62.87;;;42.47;;
12601;SDS011;30282;16.436;99.370;2024-02-16T01:27:41;70.27;;;44.50;;
12601;SDS011;30282;16.436;99.370;2024-02-16T01:30:11;138.50;;;47.97;;
12601;SDS011;30282;16.436;99.370;2024-02-16T01:32:41;122.73;;;45.30;;
12601;SDS011;30282;16.436;99.370;2024-02-16T01:35:10;70.43;;;41.87;;
12601;SDS011;30282;16.436;99.370;2024-02-16T01:37:40;75.17;;;41.10;;
12601;SDS011;30282;16.436;99.370;2024-02-16T01:40:09;76.47;;;39.10;;
12601;SDS011;30282;16.436;99.370;2024-02-16T01:42:41;346.47;;;51.93;;
12601;SDS011;30282;16.436;99.370;2024-02-16T01:45:11;313.70;;;48.97;;
12601;SDS011;30282;16.436;99.370;2024-02-16T01:47:41;121.60;;;40.77;;
12601;SDS011;30282;16.436;99.370;2024-02-16T01:50:12;69.17;;;40.20;;
12601;SDS011;30282;16.436;99.370;2024-02-16T01:52:43;66.00;;;40.20;;
12601;SDS011;30282;16.436;99.370;2024-02-16T01:55:13;68.90;;;39.90;;
12601;SDS011;30282;16.436;99.370;2024-02-16T01:57:45;61.77;;;40.83;;
12601;SDS011;30282;16.436;99.370;2024-02-16T02:00:15;84.10;;;42.93;;
12601;SDS011;30282;16.436;99.370;2024-02-16T02:02:45;66.90;;;38.90;;
12601;SDS011;30282;16.436;99.370;2024-02-16T02:05:14;70.60;;;39.27;;
12601;SDS011;30282;16.436;99.370;2024-02-16T02:07:44;124.17;;;46.70;;
12601;SDS011;30282;16.436;99.370;2024-02-16T02:10:13;83.00;;;41.47;;
12601;SDS011;30282;16.436;99.370;2024-02-16T02:12:42;69.07;;;40.83;;
12601;SDS011;30282;16.436;99.370;2024-02-16T02:15:13;76.13;;;39.63;;
12601;SDS011;30282;16.436;99.370;2024-02-16T02:17:42;51.57;;;38.07;;
12601;SDS011;30282;16.436;99.370;2024-02-16T02:20:12;62.97;;;38.30;;
12601;SDS011;30282;16.436;99.370;2024-02-16T02:22:43;57.60;;;37.43;;
12601;SDS011;30282;16.436;99.370;2024-02-16T02:25:13;70.90;;;37.83;;
12601;SDS011;30282;16.436;99.370;2024-02-16T02:27:42;59.20;;;38.30;;
12601;SDS011;30282;16.436;99.370;2024-02-16T02:30:11;77.27;;;40.80;;
12601;SDS011;30282;16.436;99.370;2024-02-16T02:32:42;55.60;;;35.40;;
12601;SDS011;30282;16.436;99.370;2024-02-16T02:35:11;71.33;;;37.80;;
12601;SDS011;30282;16.436;99.370;2024-02-16T02:37:43;70.30;;;38.77;;
12601;SDS011;30282;16.436;99.370;2024-02-16T02:40:12;67.20;;;33.60;;
12601;SDS011;30282;16.436;99.370;2024-02-16T02:42:42;59.40;;;34.13;;
12601;SDS011;30282;16.436;99.370;2024-02-16T02:45:11;55.60;;;33.20;;
12601;SDS011;30282;16.436;99.370;2024-02-16T02:47:41;49.57;;;30.90;;
12601;SDS011;30282;16.436;99.370;2024-02-16T02:50:12;37.43;;;26.90;;
12601;SDS011;30282;16.436;99.370;2024-02-16T02:52:43;46.53;;;28.50;;
12601;SDS011;30282;16.436;99.370;2024-02-16T02:55:12;79.93;;;30.73;;
12601;SDS011;30282;16.436;99.370;2024-02-16T02:57:42;138.20;;;33.03;;
12601;SDS011;30282;16.436;99.370;2024-02-16T03:00:14;55.10;;;25.90;;
12601;SDS011;30282;16.436;99.370;2024-02-16T03:02:43;43.00;;;26.00;;
12601;SDS011;30282;16.436;99.370;2024-02-16T03:05:13;36.67;;;26.90;;
12601;SDS011;30282;16.436;99.370;2024-02-16T03:07:44;39.97;;;26.60;;
12601;SDS011;30282;16.436;99.370;2024-02-16T03:10:13;35.17;;;24.83;;
12601;SDS011;30282;16.436;99.370;2024-02-16T03:12:46;44.20;;;28.33;;
12601;SDS011;30282;16.436;99.370;2024-02-16T03:15:16;49.07;;;29.00;;
12601;SDS011;30282;16.436;99.370;2024-02-16T03:17:45;42.23;;;28.00;;
12601;SDS011;30282;16.436;99.370;2024-02-16T03:20:14;42.60;;;28.03;;
12601;SDS011;30282;16.436;99.370;2024-02-16T03:22:45;47.73;;;29.40;;
12601;SDS011;30282;16.436;99.370;2024-02-16T03:25:15;72.07;;;29.13;;
12601;SDS011;30282;16.436;99.370;2024-02-16T03:27:44;41.17;;;28.47;;
12601;SDS011;30282;16.436;99.370;2024-02-16T03:30:14;41.07;;;28.83;;
12601;SDS011;30282;16.436;99.370;2024-02-16T03:32:43;39.97;;;29.50;;
12601;SDS011;30282;16.436;99.370;2024-02-16T03:35:16;45.80;;;30.20;;
12601;SDS011;30282;16.436;99.370;2024-02-16T03:37:47;42.70;;;29.90;;
12601;SDS011;30282;16.436;99.370;2024-02-16T03:40:16;38.60;;;30.10;;
12601;SDS011;30282;16.436;99.370;2024-02-16T03:42:46;39.87;;;29.67;;
12601;SDS011;30282;16.436;99.370;2024-02-16T03:45:15;41.33;;;31.13;;
12601;SDS011;30282;16.436;99.370;2024-02-16T03:47:44;45.90;;;29.60;;
12601;SDS011;30282;16.436;99.370;2024-02-16T03:50:14;39.00;;;30.13;;
12601;SDS011;30282;16.436;99.370;2024-02-16T03:52:43;42.97;;;30.13;;
12601;SDS011;30282;16.436;99.370;2024-02-16T03:55:14;43.00;;;31.17;;
12601;SDS011;30282;16.436;99.370;2024-02-16T03:57:44;40.87;;;30.73;;
12601;SDS011;30282;16.436;99.370;2024-02-16T04:00:13;41.00;;;29.80;;
12601;SDS011;30282;16.436;99.370;2024-02-16T04:02:43;47.23;;;30.33;;
12601;SDS011;30282;16.436;99.370;2024-02-16T04:05:12;41.90;;;29.80;;
12601;SDS011;30282;16.436;99.370;2024-02-16T04:07:42;42.40;;;30.20;;
12601;SDS011;30282;16.436;99.370;2024-02-16T04:10:11;43.67;;;30.57;;
12601;SDS011;30282;16.436;99.370;2024-02-16T04:12:42;51.67;;;31.90;;
12601;SDS011;30282;16.436;99.370;2024-02-16T04:15:11;43.33;;;31.63;;
12601;SDS011;30282;16.436;99.370;2024-02-16T04:17:40;45.87;;;30.90;;
12601;SDS011;30282;16.436;99.370;2024-02-16T04:20:10;37.60;;;30.73;;
12601;SDS011;30282;16.436;99.370;2024-02-16T04:22:39;44.77;;;31.17;;
12601;SDS011;30282;16.436;99.370;2024-02-16T04:25:08;40.37;;;27.37;;
12601;SDS011;30282;16.436;99.370;2024-02-16T04:27:39;36.57;;;27.60;;
12601;SDS011;30282;16.436;99.370;2024-02-16T04:30:09;43.73;;;29.73;;
12601;SDS011;30282;16.436;99.370;2024-02-16T04:32:38;32.50;;;25.90;;
12601;SDS011;30282;16.436;99.370;2024-02-16T04:35:08;36.53;;;28.20;;
12601;SDS011;30282;16.436;99.370;2024-02-16T04:37:38;36.53;;;27.73;;
12601;SDS011;30282;16.436;99.370;2024-02-16T04:40:08;35.07;;;27.20;;
12601;SDS011;30282;16.436;99.370;2024-02-16T04:42:40;41.07;;;29.83;;
12601;SDS011;30282;16.436;99.370;2024-02-16T04:45:11;45.50;;;29.87;;
12601;SDS011;30282;16.436;99.370;2024-02-16T04:47:40;33.50;;;27.53;;
12601;SDS011;30282;16.436;99.370;2024-02-16T04:50:10;40.97;;;28.73;;
12601;SDS011;30282;16.436;99.370;2024-02-16T04:52:39;35.63;;;28.23;;
12601;SDS011;30282;16.436;99.370;2024-02-16T04:55:09;45.37;;;27.80;;
12601;SDS011;30282;16.436;99.370;2024-02-16T04:57:40;34.13;;;27.07;;
12601;SDS011;30282;16.436;99.370;2024-02-16T05:00:10;42.43;;;26.03;;
12601;SDS011;30282;16.436;99.370;2024-02-16T05:02:40;37.83;;;27.50;;
12601;SDS011;30282;16.436;99.370;2024-02-16T05:05:10;38.33;;;26.83;;
12601;SDS011;30282;16.436;99.370;2024-02-16T05:07:39;41.30;;;27.87;;
12601;SDS011;30282;16.436;99.370;2024-02-16T05:10:08;37.63;;;26.90;;
12601;SDS011;30282;16.436;99.370;2024-02-16T05:12:37;34.50;;;27.80;;
12601;SDS011;30282;16.436;99.370;2024-02-16T05:15:09;35.43;;;27.07;;
12601;SDS011;30282;16.436;99.370;2024-02-16T05:17:39;38.00;;;26.03;;
12601;SDS011;30282;16.436;99.370;2024-02-16T05:20:10;39.33;;;28.40;;
12601;SDS011;30282;16.436;99.370;2024-02-16T05:22:41;36.73;;;28.40;;
12601;SDS011;30282;16.436;99.370;2024-02-16T05:25:11;37.77;;;30.10;;
12601;SDS011;30282;16.436;99.370;2024-02-16T05:27:42;44.90;;;29.03;;
12601;SDS011;30282;16.436;99.370;2024-02-16T05:30:13;42.20;;;27.40;;
12601;SDS011;30282;16.436;99.370;2024-02-16T05:32:42;34.73;;;28.47;;
12601;SDS011;30282;16.436;99.370;2024-02-16T05:35:12;35.43;;;28.40;;
12601;SDS011;30282;16.436;99.370;2024-02-16T05:37:42;36.50;;;29.33;;
12601;SDS011;30282;16.436;99.370;2024-02-16T05:40:14;42.33;;;29.07;;
12601;SDS011;30282;16.436;99.370;2024-02-16T05:42:52;38.07;;;31.00;;
12601;SDS011;30282;16.436;99.370;2024-02-16T05:45:23;38.77;;;29.17;;
12601;SDS011;30282;16.436;99.370;2024-02-16T05:47:53;41.30;;;30.50;;
12601;SDS011;30282;16.436;99.370;2024-02-16T05:50:22;41.07;;;30.63;;
12601;SDS011;30282;16.436;99.370;2024-02-16T05:52:51;39.90;;;31.20;;
12601;SDS011;30282;16.436;99.370;2024-02-16T05:55:21;44.97;;;33.07;;
12601;SDS011;30282;16.436;99.370;2024-02-16T05:57:52;43.27;;;30.97;;
12601;SDS011;30282;16.436;99.370;2024-02-16T06:00:21;43.07;;;32.00;;
12601;SDS011;30282;16.436;99.370;2024-02-16T06:02:50;41.50;;;29.90;;
12601;SDS011;30282;16.436;99.370;2024-02-16T06:05:20;42.73;;;31.13;;
12601;SDS011;30282;16.436;99.370;2024-02-16T06:07:49;44.53;;;30.83;;
12601;SDS011;30282;16.436;99.370;2024-02-16T06:10:18;39.23;;;32.10;;
12601;SDS011;30282;16.436;99.370;2024-02-16T06:12:48;42.97;;;32.97;;
12601;SDS011;30282;16.436;99.370;2024-02-16T06:15:19;46.83;;;31.37;;
12601;SDS011;30282;16.436;99.370;2024-02-16T06:17:48;41.60;;;33.37;;
12601;SDS011;30282;16.436;99.370;2024-02-16T06:20:18;40.13;;;32.70;;
12601;SDS011;30282;16.436;99.370;2024-02-16T06:22:47;64.97;;;35.27;;
12601;SDS011;30282;16.436;99.370;2024-02-16T06:25:16;40.43;;;31.67;;
12601;SDS011;30282;16.436;99.370;2024-02-16T06:27:46;45.40;;;33.00;;
12601;SDS011;30282;16.436;99.370;2024-02-16T06:30:15;44.13;;;34.20;;
12601;SDS011;30282;16.436;99.370;2024-02-16T06:32:46;51.30;;;34.10;;
12601;SDS011;30282;16.436;99.370;2024-02-16T06:35:16;47.07;;;35.43;;
12601;SDS011;30282;16.436;99.370;2024-02-16T06:37:45;46.63;;;31.63;;
12601;SDS011;30282;16.436;99.370;2024-02-16T06:40:14;48.43;;;34.10;;
12601;SDS011;30282;16.436;99.370;2024-02-16T06:42:43;43.80;;;32.47;;
12601;SDS011;30282;16.436;99.370;2024-02-16T06:45:12;50.53;;;33.97;;
12601;SDS011;30282;16.436;99.370;2024-02-16T06:47:42;46.50;;;32.13;;
12601;SDS011;30282;16.436;99.370;2024-02-16T06:50:13;36.13;;;30.03;;
12601;SDS011;30282;16.436;99.370;2024-02-16T06:52:42;41.43;;;31.10;;
12601;SDS011;30282;16.436;99.370;2024-02-16T06:55:11;40.50;;;30.13;;
12601;SDS011;30282;16.436;99.370;2024-02-16T06:57:40;43.07;;;30.93;;
12601;SDS011;30282;16.436;99.370;2024-02-16T07:00:09;34.97;;;28.70;;
12601;SDS011;30282;16.436;99.370;2024-02-16T07:02:41;38.43;;;29.60;;
12601;SDS011;30282;16.436;99.370;2024-02-16T07:05:13;40.00;;;30.97;;
12601;SDS011;30282;16.436;99.370;2024-02-16T07:07:43;45.67;;;29.80;;
12601;SDS011;30282;16.436;99.370;2024-02-16T07:10:12;35.93;;;30.47;;
12601;SDS011;30282;16.436;99.370;2024-02-16T07:12:42;39.27;;;28.37;;
12601;SDS011;30282;16.436;99.370;2024-02-16T07:15:11;55.17;;;31.53;;
12601;SDS011;30282;16.436;99.370;2024-02-16T07:17:40;38.93;;;29.37;;
12601;SDS011;30282;16.436;99.370;2024-02-16T07:20:10;37.40;;;29.37;;
12601;SDS011;30282;16.436;99.370;2024-02-16T07:22:42;43.53;;;29.67;;
12601;SDS011;30282;16.436;99.370;2024-02-16T07:25:12;39.13;;;28.73;;
12601;SDS011;30282;16.436;99.370;2024-02-16T07:27:41;39.53;;;31.23;;
12601;SDS011;30282;16.436;99.370;2024-02-16T07:30:11;43.23;;;32.27;;
12601;SDS011;30282;16.436;99.370;2024-02-16T07:32:40;45.13;;;32.20;;
12601;SDS011;30282;16.436;99.370;2024-02-16T07:35:13;39.70;;;28.23;;
12601;SDS011;30282;16.436;99.370;2024-02-16T07:37:42;38.77;;;28.77;;
12601;SDS011;30282;16.436;99.370;2024-02-16T07:40:11;37.43;;;26.37;;
12601;SDS011;30282;16.436;99.370;2024-02-16T07:42:41;32.00;;;27.63;;
12601;SDS011;30282;16.436;99.370;2024-02-16T07:45:10;40.10;;;29.30;;
12601;SDS011;30282;16.436;99.370;2024-02-16T07:47:40;40.77;;;28.90;;
12601;SDS011;30282;16.436;99.370;2024-02-16T07:50:09;40.23;;;28.63;;
12601;SDS011;30282;16.436;99.370;2024-02-16T07:52:41;32.90;;;28.73;;
12601;SDS011;30282;16.436;99.370;2024-02-16T07:55:10;45.63;;;29.53;;
12601;SDS011;30282;16.436;99.370;2024-02-16T07:57:39;35.57;;;29.07;;
12601;SDS011;30282;16.436;99.370;2024-02-16T08:00:08;33.30;;;29.17;;
12601;SDS011;30282;16.436;99.370;2024-02-16T08:02:38;57.87;;;30.77;;
12601;SDS011;30282;16.436;99.370;2024-02-16T08:05:08;47.30;;;28.90;;
12601;SDS011;30282;16.436;99.370;2024-02-16T08:07:40;43.43;;;33.40;;
12601;SDS011;30282;16.436;99.370;2024-02-16T08:10:10;45.03;;;32.10;;
12601;SDS011;30282;16.436;99.370;2024-02-16T08:12:39;46.60;;;32.70;;
12601;SDS011;30282;16.436;99.370;2024-02-16T08:15:08;45.73;;;30.87;;
12601;SDS011;30282;16.436;99.370;2024-02-16T08:17:38;45.27;;;31.83;;
12601;SDS011;30282;16.436;99.370;2024-02-16T08:20:08;71.83;;;33.33;;
12601;SDS011;30282;16.436;99.370;2024-02-16T08:22:38;38.40;;;30.90;;
12601;SDS011;30282;16.436;99.370;2024-02-16T08:25:09;41.63;;;31.50;;
12601;SDS011;30282;16.436;99.370;2024-02-16T08:27:38;51.87;;;32.43;;
12601;SDS011;30282;16.436;99.370;2024-02-16T08:30:07;48.40;;;30.67;;
12601;SDS011;30282;16.436;99.370;2024-02-16T08:32:37;44.00;;;31.27;;
12601;SDS011;30282;16.436;99.370;2024-02-16T08:35:07;40.90;;;31.93;;
12601;SDS011;30282;16.436;99.370;2024-02-16T08:37:36;43.57;;;31.33;;
12601;SDS011;30282;16.436;99.370;2024-02-16T08:40:07;47.00;;;31.10;;
12601;SDS011;30282;16.436;99.370;2024-02-16T08:42:40;43.67;;;30.60;;
12601;SDS011;30282;16.436;99.370;2024-02-16T08:45:09;45.47;;;31.30;;
